Love Boat — OT3861 — position and weather

sailwx.info

Track history (hours):
 
Tides and Currents Weather Stations Pressure Air Temp Water Temp Dewpoint Dewpoint Depression Visibility Wind Speed Wind Dir Waves Ship Positions

Love Boat

Last reported at 2017-Sep-18 02:00 UTC. Time now 2017-Sep-25 00:56 UTC.
Position N 50°41' E 007°11'.

Length 110 m.

Type: Ship. MMSI: 205386190.

Date/timePositionNaut miles runAvg speedWind from/ knotsBaromVisibWave heightAir tempDewpointWater temp
2017-Sep-18 02:00N 50°41' E 007°11'2 4.0
2017-Sep-18 01:24N 50°43' E 007°08'2 4.3
2017-Sep-18 00:59N 50°45' E 007°06'2 4.3
2017-Sep-18 00:29N 50°46' E 007°04'3 4.0
2017-Sep-17 23:51N 50°48' E 007°02'2 3.6
2017-Sep-17 23:22N 50°50' E 006°60'1 3.1
2017-Sep-17 22:55N 50°51' E 006°59'2 4.2
2017-Sep-17 22:30N 50°52' E 007°01'2 3.3
2017-Sep-17 22:00N 50°54' E 007°03'2 3.8
2017-Sep-17 21:30N 50°54' E 006°60'2 4.1
2017-Sep-17 20:58N 50°56' E 006°58'29 2.9
2017-Sep-17 11:13N 51°22' E 006°40'1 4.4
2017-Sep-17 10:59N 51°22' E 006°41'2 4.4
2017-Sep-17 10:30N 51°23' E 006°44'2 4.1
2017-Sep-17 10:00N 51°25' E 006°44'2 4.1
2017-Sep-17 09:30N 51°27' E 006°43'2 4.2
2017-Sep-17 09:00N 51°29' E 006°41'2 4.2
2017-Sep-17 08:30N 51°30' E 006°43'2 4.2
2017-Sep-17 07:59N 51°32' E 006°41'2 4.8
2017-Sep-17 07:30N 51°34' E 006°41'2 3.8
2017-Sep-17 07:00N 51°34' E 006°38'2 3.4
2017-Sep-17 06:29N 51°35' E 006°36'2 5.1
2017-Sep-17 06:00N 51°38' E 006°35'2 3.7
2017-Sep-17 05:30N 51°40' E 006°35'2 4.8
2017-Sep-17 05:00N 51°40' E 006°31'2 4.2
2017-Sep-17 04:30N 51°41' E 006°28'2 4.5
2017-Sep-17 03:59N 51°43' E 006°26'2 3.9
2017-Sep-17 03:29N 51°44' E 006°25'2 4.3
2017-Sep-17 03:00N 51°45' E 006°22'2 4.8
2017-Sep-17 02:30N 51°47' E 006°19'3 5.2
2017-Sep-17 02:00N 51°49' E 006°17'3 5.2
2017-Sep-17 01:30N 51°50' E 006°13'2 4.9
2017-Sep-17 01:00N 51°51' E 006°09'3 5.4
2017-Sep-17 00:30N 51°51' E 006°05'3 5.8
2017-Sep-17 00:00N 51°53' E 006°01'2 5.0
2017-Sep-16 23:30N 51°51' E 005°58'3 5.1
2017-Sep-16 23:00N 51°52' E 005°54'2 4.4
2017-Sep-16 22:30N 51°51' E 005°51'3 5.4
2017-Sep-16 22:00N 51°53' E 005°47'3 5.7
2017-Sep-16 21:30N 51°54' E 005°43'3 5.5
2017-Sep-16 21:00N 51°54' E 005°38'3 5.7
2017-Sep-16 20:30N 51°54' E 005°33'3 5.7
2017-Sep-16 19:59N 51°53' E 005°29'4 5.4
2017-Sep-16 19:14N 51°50' E 005°24'2 6.1
2017-Sep-16 18:50N 51°48' E 005°22'10 5.6
2017-Sep-16 17:01N 51°50' E 005°06'0 6.6
2017-Sep-16 16:59N 51°50' E 005°05'3 6.6
2017-Sep-16 16:30N 51°49' E 005°00'4 7.2
2017-Sep-16 16:00N 51°49' E 004°54'4 7.2
2017-Sep-16 15:30N 51°48' E 004°49'3 6.9
2017-Sep-16 15:00N 51°46' E 004°45'4 7.7
2017-Sep-16 14:30N 51°43' E 004°40'4 8.4
2017-Sep-16 14:00N 51°42' E 004°33'5 8.3
2017-Sep-16 13:27N 51°42' E 004°26'2 1.8
2017-Sep-16 12:35N 51°41' E 004°24'0 0.0
2017-Sep-16 12:30N 51°41' E 004°24'0 0.0
2017-Sep-16 11:59N 51°41' E 004°24'17 4.8
2017-Sep-16 08:25N 51°36' E 003°58'4 8.6
2017-Sep-16 07:58N 51°32' E 004°00'4 8.2
2017-Sep-16 07:29N 51°28' E 004°00'1 1.7
2017-Sep-16 07:00N 51°27' E 004°01'4 7.3
2017-Sep-16 06:30N 51°24' E 003°58'510.3
2017-Sep-16 06:00N 51°21' E 003°51'2 3.0
2017-Sep-16 05:30N 51°20' E 003°49'2 3.7
2017-Sep-16 05:01N 51°18' E 003°50'4 8.4
2017-Sep-16 04:30N 51°14' E 003°49'4 8.8
2017-Sep-16 04:00N 51°10' E 003°47'4 8.8
2017-Sep-16 03:30N 51°06' E 003°44'1 0.4
2017-Sep-16 01:20N 51°05' E 003°45'0 0.9
2017-Sep-16 01:00N 51°05' E 003°45'0 0.0
2017-Sep-16 00:30N 51°05' E 003°45'0 0.0
2017-Sep-16 00:00N 51°05' E 003°45'0 0.0
2017-Sep-15 23:30N 51°05' E 003°45'0 0.0
2017-Sep-15 23:00N 51°05' E 003°45'0 0.0
2017-Sep-15 22:30N 51°05' E 003°45'0 0.0
2017-Sep-15 22:00N 51°05' E 003°45'0 0.0
2017-Sep-15 21:30N 51°05' E 003°45'0 0.0
2017-Sep-15 21:00N 51°05' E 003°45'0 0.0
2017-Sep-15 20:30N 51°05' E 003°45'0 0.0
2017-Sep-15 20:00N 51°05' E 003°45'0 0.0
2017-Sep-15 19:30N 51°05' E 003°45'0 0.0
2017-Sep-15 19:00N 51°05' E 003°45'0 0.0
2017-Sep-15 18:30N 51°05' E 003°45'0 0.0
2017-Sep-15 18:00N 51°05' E 003°45'0 0.0
2017-Sep-15 17:30N 51°05' E 003°45'0 0.0
2017-Sep-15 17:00N 51°05' E 003°45'0 0.0
2017-Sep-15 16:30N 51°05' E 003°45'0 0.0
2017-Sep-15 16:00N 51°05' E 003°45'0 0.0
2017-Sep-15 15:30N 51°05' E 003°45'0 0.2
2017-Sep-15 15:00N 51°05' E 003°45'0 0.0
2017-Sep-15 14:30N 51°05' E 003°45'0 0.0
2017-Sep-15 14:00N 51°05' E 003°45'0 0.0
2017-Sep-15 13:30N 51°05' E 003°45'0 0.0
2017-Sep-15 13:00N 51°05' E 003°45'0 0.0
2017-Sep-15 12:30N 51°05' E 003°45'0 0.0
2017-Sep-15 12:00N 51°05' E 003°45'0 0.0
2017-Sep-15 11:31N 51°05' E 003°45'0 0.0
2017-Sep-15 11:00N 51°05' E 003°45'0 0.0
2017-Sep-15 10:30N 51°05' E 003°45'0 0.0
2017-Sep-15 10:00N 51°05' E 003°45'0 0.0
2017-Sep-15 09:29N 51°05' E 003°45'1 2.2
2017-Sep-15 09:00N 51°06' E 003°44'1 1.5
2017-Sep-15 08:30N 51°05' E 003°44'0 0.0
2017-Sep-15 08:00N 51°05' E 003°44'0 0.0
2017-Sep-15 07:30N 51°05' E 003°44'0 0.0
2017-Sep-15 07:00N 51°05' E 003°44'0 0.0
2017-Sep-15 06:31N 51°05' E 003°44'0 0.0
2017-Sep-15 06:01N 51°05' E 003°44'0 0.0
2017-Sep-15 05:30N 51°05' E 003°44'0 0.0
2017-Sep-15 05:00N 51°05' E 003°44'0 0.0
2017-Sep-15 04:30N 51°05' E 003°44'0 0.0
2017-Sep-15 04:00N 51°05' E 003°44'0 0.0
2017-Sep-15 03:30N 51°05' E 003°44'0 0.0
2017-Sep-15 03:00N 51°05' E 003°44'0 0.0
2017-Sep-15 02:30N 51°05' E 003°44'0 0.0
2017-Sep-15 02:00N 51°05' E 003°44'0 0.0
2017-Sep-15 01:31N 51°05' E 003°44'0 0.0
2017-Sep-15 01:00N 51°05' E 003°44'0 0.0
2017-Sep-15 00:30N 51°05' E 003°44'0 0.0
2017-Sep-15 00:00N 51°05' E 003°44'0 0.0
2017-Sep-14 23:30N 51°05' E 003°44'0 0.0
2017-Sep-14 23:00N 51°05' E 003°44'0 0.0
2017-Sep-14 22:30N 51°05' E 003°44'0 0.0
2017-Sep-14 22:00N 51°05' E 003°44'0 0.0
2017-Sep-14 21:31N 51°05' E 003°44'0 0.0
2017-Sep-14 21:01N 51°05' E 003°44'0 0.0
2017-Sep-14 20:30N 51°05' E 003°44'0 0.0
2017-Sep-14 20:00N 51°05' E 003°44'0 0.0
2017-Sep-14 19:31N 51°05' E 003°44'0 0.0
2017-Sep-14 19:01N 51°05' E 003°44'0 0.0
2017-Sep-14 18:30N 51°05' E 003°44'0 0.0
2017-Sep-14 18:00N 51°05' E 003°44'0 0.0
2017-Sep-14 17:31N 51°05' E 003°44'0 0.0
2017-Sep-14 17:00N 51°05' E 003°44'0 0.0
2017-Sep-14 16:30N 51°05' E 003°44'0 0.0
2017-Sep-14 16:00N 51°05' E 003°44'0 0.0
2017-Sep-14 15:30N 51°05' E 003°44'0 0.0
2017-Sep-14 15:01N 51°05' E 003°44'0 0.0
2017-Sep-14 14:31N 51°05' E 003°44'0 0.0
2017-Sep-14 14:00N 51°05' E 003°44'0 0.0
2017-Sep-14 13:30N 51°05' E 003°44'0 0.0
2017-Sep-14 13:00N 51°05' E 003°44'0 0.0
2017-Sep-14 12:30N 51°05' E 003°44'0 0.0
2017-Sep-14 12:00N 51°05' E 003°44'0 0.0
2017-Sep-14 11:30N 51°05' E 003°44'0 0.0
2017-Sep-14 11:00N 51°05' E 003°44'0 0.0
2017-Sep-14 10:30N 51°05' E 003°44'0 0.0
2017-Sep-14 10:00N 51°05' E 003°44'0 0.0
2017-Sep-14 09:30N 51°05' E 003°44'0 0.0
2017-Sep-14 09:00N 51°05' E 003°44'0 0.0
2017-Sep-14 08:31N 51°05' E 003°44'0 0.0
2017-Sep-14 08:01N 51°05' E 003°44'0 0.0
2017-Sep-14 07:30N 51°05' E 003°44'0 0.0
2017-Sep-14 07:00N 51°05' E 003°44'0 0.0
2017-Sep-14 06:30N 51°05' E 003°44'0 0.0
2017-Sep-14 06:00N 51°05' E 003°44'0 0.0
2017-Sep-14 05:30N 51°05' E 003°44'0 0.0
2017-Sep-14 05:00N 51°05' E 003°44'0 0.0
2017-Sep-14 04:30N 51°05' E 003°44'0 0.0
2017-Sep-14 04:01N 51°05' E 003°44'0 0.0
2017-Sep-14 03:30N 51°05' E 003°44'0 0.0
2017-Sep-14 03:00N 51°05' E 003°44'0 0.0
2017-Sep-14 02:30N 51°05' E 003°44'0 0.0
2017-Sep-14 02:00N 51°05' E 003°44'0 0.0
2017-Sep-14 01:31N 51°05' E 003°44'0 0.0
2017-Sep-14 01:01N 51°05' E 003°44'0 0.0
2017-Sep-14 00:31N 51°05' E 003°44'0 0.0
2017-Sep-14 00:01N 51°05' E 003°44'0 0.0
2017-Sep-13 23:30N 51°05' E 003°44'0 0.0
2017-Sep-13 23:01N 51°05' E 003°44'0 0.0
2017-Sep-13 22:30N 51°05' E 003°44'0 0.0
2017-Sep-13 22:00N 51°05' E 003°44'0 0.0
2017-Sep-13 21:30N 51°05' E 003°44'0 0.0
2017-Sep-13 21:00N 51°05' E 003°44'0 0.0
2017-Sep-13 20:31N 51°05' E 003°44'0 0.0
2017-Sep-13 20:01N 51°05' E 003°44'0 0.0
2017-Sep-13 19:30N 51°05' E 003°44'0 0.0
2017-Sep-13 19:00N 51°05' E 003°44'0 0.0
2017-Sep-13 18:30N 51°05' E 003°44'0 0.0
2017-Sep-13 18:01N 51°05' E 003°44'0 0.2
2017-Sep-13 17:30N 51°06' E 003°44'2 4.7
2017-Sep-13 17:00N 51°08' E 003°46'4 7.5
2017-Sep-13 16:30N 51°11' E 003°48'4 7.9
2017-Sep-13 16:00N 51°15' E 003°49'4 8.0
2017-Sep-13 15:30N 51°19' E 003°50'0 0.4
2017-Sep-13 15:00N 51°19' E 003°50'0 0.0
2017-Sep-13 14:30N 51°19' E 003°50'0 0.0
2017-Sep-13 14:00N 51°19' E 003°50'0 0.0
2017-Sep-13 13:30N 51°19' E 003°50'0 0.0
2017-Sep-13 13:00N 51°19' E 003°50'0 0.0
2017-Sep-13 12:31N 51°19' E 003°50'0 0.0
2017-Sep-13 12:00N 51°19' E 003°50'0 0.0
2017-Sep-13 11:30N 51°19' E 003°50'0 0.0
2017-Sep-13 11:00N 51°19' E 003°50'0 0.0
2017-Sep-13 10:31N 51°19' E 003°50'0 0.0
2017-Sep-13 10:00N 51°19' E 003°50'0 0.0
2017-Sep-13 09:30N 51°19' E 003°50'0 0.0
2017-Sep-13 09:00N 51°19' E 003°50'0 0.0
2017-Sep-13 08:31N 51°19' E 003°50'0 0.0
2017-Sep-13 08:00N 51°19' E 003°50'0 0.0
2017-Sep-13 07:30N 51°19' E 003°50'0 0.0
2017-Sep-13 07:00N 51°19' E 003°50'0 0.0
2017-Sep-13 06:30N 51°19' E 003°50'0 0.0
2017-Sep-13 06:00N 51°19' E 003°50'0 0.0
2017-Sep-13 05:30N 51°19' E 003°50'0 0.0
2017-Sep-13 05:01N 51°19' E 003°50'0 0.0
2017-Sep-13 04:30N 51°19' E 003°50'0 0.0
2017-Sep-13 04:00N 51°19' E 003°50'0 0.0
2017-Sep-13 03:30N 51°19' E 003°50'0 0.0
2017-Sep-13 03:00N 51°19' E 003°50'0 0.0
2017-Sep-13 02:30N 51°19' E 003°50'0 0.0
2017-Sep-13 02:00N 51°19' E 003°50'0 0.0
2017-Sep-13 01:30N 51°19' E 003°50'0 0.0
2017-Sep-13 01:00N 51°19' E 003°50'0 0.0
2017-Sep-13 00:30N 51°19' E 003°50'0 0.0
2017-Sep-13 00:00N 51°19' E 003°50'0 0.0
2017-Sep-12 23:30N 51°19' E 003°50'0 0.0
2017-Sep-12 23:00N 51°19' E 003°50'0 0.0
2017-Sep-12 22:30N 51°19' E 003°50'0 0.0
2017-Sep-12 22:00N 51°19' E 003°50'0 0.0
2017-Sep-12 21:30N 51°19' E 003°50'0 0.0
2017-Sep-12 21:00N 51°19' E 003°50'0 0.0
2017-Sep-12 20:30N 51°19' E 003°50'0 0.0
2017-Sep-12 20:00N 51°19' E 003°50'0 0.0
2017-Sep-12 19:30N 51°19' E 003°50'0 0.0
2017-Sep-12 19:00N 51°19' E 003°50'0 0.0
2017-Sep-12 18:31N 51°19' E 003°50'0 0.0
2017-Sep-12 18:01N 51°19' E 003°50'0 0.0
2017-Sep-12 17:30N 51°19' E 003°50'0 0.0
2017-Sep-12 17:00N 51°19' E 003°50'0 0.0
2017-Sep-12 16:31N 51°19' E 003°50'0 0.0
2017-Sep-12 16:00N 51°19' E 003°50'0 0.0
2017-Sep-12 15:31N 51°19' E 003°50'0 0.0
2017-Sep-12 15:00N 51°19' E 003°50'0 0.0
2017-Sep-12 14:31N 51°19' E 003°50'0 0.0
2017-Sep-12 14:00N 51°19' E 003°50'0 0.0
2017-Sep-12 13:30N 51°19' E 003°50'0 0.2
2017-Sep-12 13:00N 51°19' E 003°50'1 2.0
2017-Sep-12 12:30N 51°20' E 003°49'0 0.0
2017-Sep-12 12:00N 51°20' E 003°49'1 1.7
2017-Sep-12 11:30N 51°21' E 003°50'5 9.1
2017-Sep-12 11:00N 51°23' E 003°57'2956.0
2017-Sep-12 10:29N 51°42' E 004°32'0 0.0
2017-Sep-12 10:00N 51°42' E 004°32'0 0.0
2017-Sep-12 09:30N 51°42' E 004°32'0 0.0
2017-Sep-12 09:00N 51°42' E 004°32'0 0.0
2017-Sep-12 08:30N 51°42' E 004°32'0 0.0
2017-Sep-12 08:00N 51°42' E 004°32'0 0.0
2017-Sep-12 07:30N 51°42' E 004°32'0 0.0
2017-Sep-12 07:00N 51°42' E 004°32'0 0.0
2017-Sep-12 06:30N 51°42' E 004°32'0 0.0
2017-Sep-12 06:00N 51°42' E 004°32'0 0.0
2017-Sep-12 05:30N 51°42' E 004°32'1 1.5
2017-Sep-12 05:00N 51°42' E 004°33'3 6.5
2017-Sep-12 04:30N 51°43' E 004°38'4 7.7
2017-Sep-12 04:00N 51°45' E 004°44'4 7.6
2017-Sep-12 03:30N 51°48' E 004°47'4 7.3
2017-Sep-12 03:00N 51°49' E 004°53'4 8.2
2017-Sep-12 02:30N 51°49' E 004°60'19 7.8
2017-Sep-12 00:04N 51°53' E 005°30'2 9.2
2017-Sep-11 23:48N 51°54' E 005°34'3 9.2
2017-Sep-11 23:29N 51°54' E 005°38'4 9.0
2017-Sep-11 23:00N 51°53' E 005°45'4 8.9
2017-Sep-11 22:30N 51°51' E 005°52'3 6.9
2017-Sep-11 22:00N 51°52' E 005°57'3 6.6
2017-Sep-11 21:30N 51°52' E 006°02'4 8.9
2017-Sep-11 21:00N 51°51' E 006°09'5 9.1
2017-Sep-11 20:30N 51°49' E 006°16'5 9.5
2017-Sep-11 20:00N 51°45' E 006°21'3 6.3
2017-Sep-11 19:30N 51°43' E 006°25'4 8.4
2017-Sep-11 19:00N 51°40' E 006°29'4 8.9
2017-Sep-11 18:30N 51°39' E 006°36'4 8.7
2017-Sep-11 18:00N 51°35' E 006°36'3 7.0
2017-Sep-11 17:30N 51°34' E 006°41'4 7.7
2017-Sep-11 17:00N 51°30' E 006°44'2 5.0
2017-Sep-11 16:30N 51°28' E 006°43'1 1.1
2017-Sep-11 16:00N 51°27' E 006°44'3 6.2
2017-Sep-11 15:30N 51°24' E 006°45'8 6.3
2017-Sep-11 14:16N 51°17' E 006°42'2 8.1
2017-Sep-11 14:00N 51°15' E 006°45'2 4.4
2017-Sep-11 13:30N 51°13' E 006°43'3 6.6
2017-Sep-11 13:00N 51°11' E 006°47'2 4.3
2017-Sep-11 12:30N 51°10' E 006°50'13 7.2
2017-Sep-11 10:42N 50°58' E 006°60'3 8.0
2017-Sep-11 10:21N 50°56' E 006°58'3 8.3
2017-Sep-11 10:00N 50°54' E 007°01'9 6.1
2017-Sep-11 08:30N 50°45' E 007°06'4 8.0
2017-Sep-11 08:00N 50°42' E 007°10'  
Track history (hours):
 
Tides and Currents Weather Stations Pressure Air Temp Water Temp Dewpoint Dewpoint Depression Visibility Wind Speed Wind Dir Waves Ship Positions

Love Boat

Last reported at 2017-Sep-18 02:00 UTC. Time now 2017-Sep-25 00:56 UTC.
Position N 50°41' E 007°11'.

Length 110 m.

Type: Ship. MMSI: 205386190.

Date/timePositionNaut miles runAvg speedWind from/ knotsBaromVisibWave heightAir tempDewpointWater temp
2017-Sep-18 02:00N 50°41' E 007°11'2 4.0
2017-Sep-18 01:24N 50°43' E 007°08'2 4.3
2017-Sep-18 00:59N 50°45' E 007°06'2 4.3
2017-Sep-18 00:29N 50°46' E 007°04'3 4.0
2017-Sep-17 23:51N 50°48' E 007°02'2 3.6
2017-Sep-17 23:22N 50°50' E 006°60'1 3.1
2017-Sep-17 22:55N 50°51' E 006°59'2 4.2
2017-Sep-17 22:30N 50°52' E 007°01'2 3.3
2017-Sep-17 22:00N 50°54' E 007°03'2 3.8
2017-Sep-17 21:30N 50°54' E 006°60'2 4.1
2017-Sep-17 20:58N 50°56' E 006°58'29 2.9
2017-Sep-17 11:13N 51°22' E 006°40'1 4.4
2017-Sep-17 10:59N 51°22' E 006°41'2 4.4
2017-Sep-17 10:30N 51°23' E 006°44'2 4.1
2017-Sep-17 10:00N 51°25' E 006°44'2 4.1
2017-Sep-17 09:30N 51°27' E 006°43'2 4.2
2017-Sep-17 09:00N 51°29' E 006°41'2 4.2
2017-Sep-17 08:30N 51°30' E 006°43'2 4.2
2017-Sep-17 07:59N 51°32' E 006°41'2 4.8
2017-Sep-17 07:30N 51°34' E 006°41'2 3.8
2017-Sep-17 07:00N 51°34' E 006°38'2 3.4
2017-Sep-17 06:29N 51°35' E 006°36'2 5.1
2017-Sep-17 06:00N 51°38' E 006°35'2 3.7
2017-Sep-17 05:30N 51°40' E 006°35'2 4.8
2017-Sep-17 05:00N 51°40' E 006°31'2 4.2
2017-Sep-17 04:30N 51°41' E 006°28'2 4.5
2017-Sep-17 03:59N 51°43' E 006°26'2 3.9
2017-Sep-17 03:29N 51°44' E 006°25'2 4.3
2017-Sep-17 03:00N 51°45' E 006°22'2 4.8
2017-Sep-17 02:30N 51°47' E 006°19'3 5.2
2017-Sep-17 02:00N 51°49' E 006°17'3 5.2
2017-Sep-17 01:30N 51°50' E 006°13'2 4.9
2017-Sep-17 01:00N 51°51' E 006°09'3 5.4
2017-Sep-17 00:30N 51°51' E 006°05'3 5.8
2017-Sep-17 00:00N 51°53' E 006°01'2 5.0
2017-Sep-16 23:30N 51°51' E 005°58'3 5.1
2017-Sep-16 23:00N 51°52' E 005°54'2 4.4
2017-Sep-16 22:30N 51°51' E 005°51'3 5.4
2017-Sep-16 22:00N 51°53' E 005°47'3 5.7
2017-Sep-16 21:30N 51°54' E 005°43'3 5.5
2017-Sep-16 21:00N 51°54' E 005°38'3 5.7
2017-Sep-16 20:30N 51°54' E 005°33'3 5.7
2017-Sep-16 19:59N 51°53' E 005°29'4 5.4
2017-Sep-16 19:14N 51°50' E 005°24'2 6.1
2017-Sep-16 18:50N 51°48' E 005°22'10 5.6
2017-Sep-16 17:01N 51°50' E 005°06'0 6.6
2017-Sep-16 16:59N 51°50' E 005°05'3 6.6
2017-Sep-16 16:30N 51°49' E 005°00'4 7.2
2017-Sep-16 16:00N 51°49' E 004°54'4 7.2
2017-Sep-16 15:30N 51°48' E 004°49'3 6.9
2017-Sep-16 15:00N 51°46' E 004°45'4 7.7
2017-Sep-16 14:30N 51°43' E 004°40'4 8.4
2017-Sep-16 14:00N 51°42' E 004°33'5 8.3
2017-Sep-16 13:27N 51°42' E 004°26'2 1.8
2017-Sep-16 12:35N 51°41' E 004°24'0 0.0
2017-Sep-16 12:30N 51°41' E 004°24'0 0.0
2017-Sep-16 11:59N 51°41' E 004°24'17 4.8
2017-Sep-16 08:25N 51°36' E 003°58'4 8.6
2017-Sep-16 07:58N 51°32' E 004°00'4 8.2
2017-Sep-16 07:29N 51°28' E 004°00'1 1.7
2017-Sep-16 07:00N 51°27' E 004°01'4 7.3
2017-Sep-16 06:30N 51°24' E 003°58'510.3
2017-Sep-16 06:00N 51°21' E 003°51'2 3.0
2017-Sep-16 05:30N 51°20' E 003°49'2 3.7
2017-Sep-16 05:01N 51°18' E 003°50'4 8.4
2017-Sep-16 04:30N 51°14' E 003°49'4 8.8
2017-Sep-16 04:00N 51°10' E 003°47'4 8.8
2017-Sep-16 03:30N 51°06' E 003°44'1 0.4
2017-Sep-16 01:20N 51°05' E 003°45'0 0.9
2017-Sep-16 01:00N 51°05' E 003°45'0 0.0
2017-Sep-16 00:30N 51°05' E 003°45'0 0.0
2017-Sep-16 00:00N 51°05' E 003°45'0 0.0
2017-Sep-15 23:30N 51°05' E 003°45'0 0.0
2017-Sep-15 23:00N 51°05' E 003°45'0 0.0
2017-Sep-15 22:30N 51°05' E 003°45'0 0.0
2017-Sep-15 22:00N 51°05' E 003°45'0 0.0
2017-Sep-15 21:30N 51°05' E 003°45'0 0.0
2017-Sep-15 21:00N 51°05' E 003°45'0 0.0
2017-Sep-15 20:30N 51°05' E 003°45'0 0.0
2017-Sep-15 20:00N 51°05' E 003°45'0 0.0
2017-Sep-15 19:30N 51°05' E 003°45'0 0.0
2017-Sep-15 19:00N 51°05' E 003°45'0 0.0
2017-Sep-15 18:30N 51°05' E 003°45'0 0.0
2017-Sep-15 18:00N 51°05' E 003°45'0 0.0
2017-Sep-15 17:30N 51°05' E 003°45'0 0.0
2017-Sep-15 17:00N 51°05' E 003°45'0 0.0
2017-Sep-15 16:30N 51°05' E 003°45'0 0.0
2017-Sep-15 16:00N 51°05' E 003°45'0 0.0
2017-Sep-15 15:30N 51°05' E 003°45'0 0.2
2017-Sep-15 15:00N 51°05' E 003°45'0 0.0
2017-Sep-15 14:30N 51°05' E 003°45'0 0.0
2017-Sep-15 14:00N 51°05' E 003°45'0 0.0
2017-Sep-15 13:30N 51°05' E 003°45'0 0.0
2017-Sep-15 13:00N 51°05' E 003°45'0 0.0
2017-Sep-15 12:30N 51°05' E 003°45'0 0.0
2017-Sep-15 12:00N 51°05' E 003°45'0 0.0
2017-Sep-15 11:31N 51°05' E 003°45'0 0.0
2017-Sep-15 11:00N 51°05' E 003°45'0 0.0
2017-Sep-15 10:30N 51°05' E 003°45'0 0.0
2017-Sep-15 10:00N 51°05' E 003°45'0 0.0
2017-Sep-15 09:29N 51°05' E 003°45'1 2.2
2017-Sep-15 09:00N 51°06' E 003°44'1 1.5
2017-Sep-15 08:30N 51°05' E 003°44'0 0.0
2017-Sep-15 08:00N 51°05' E 003°44'0 0.0
2017-Sep-15 07:30N 51°05' E 003°44'0 0.0
2017-Sep-15 07:00N 51°05' E 003°44'0 0.0
2017-Sep-15 06:31N 51°05' E 003°44'0 0.0
2017-Sep-15 06:01N 51°05' E 003°44'0 0.0
2017-Sep-15 05:30N 51°05' E 003°44'0 0.0
2017-Sep-15 05:00N 51°05' E 003°44'0 0.0
2017-Sep-15 04:30N 51°05' E 003°44'0 0.0
2017-Sep-15 04:00N 51°05' E 003°44'0 0.0
2017-Sep-15 03:30N 51°05' E 003°44'0 0.0
2017-Sep-15 03:00N 51°05' E 003°44'0 0.0
2017-Sep-15 02:30N 51°05' E 003°44'0 0.0
2017-Sep-15 02:00N 51°05' E 003°44'0 0.0
2017-Sep-15 01:31N 51°05' E 003°44'0 0.0
2017-Sep-15 01:00N 51°05' E 003°44'0 0.0
2017-Sep-15 00:30N 51°05' E 003°44'0 0.0
2017-Sep-15 00:00N 51°05' E 003°44'0 0.0
2017-Sep-14 23:30N 51°05' E 003°44'0 0.0
2017-Sep-14 23:00N 51°05' E 003°44'0 0.0
2017-Sep-14 22:30N 51°05' E 003°44'0 0.0
2017-Sep-14 22:00N 51°05' E 003°44'0 0.0
2017-Sep-14 21:31N 51°05' E 003°44'0 0.0
2017-Sep-14 21:01N 51°05' E 003°44'0 0.0
2017-Sep-14 20:30N 51°05' E 003°44'0 0.0
2017-Sep-14 20:00N 51°05' E 003°44'0 0.0
2017-Sep-14 19:31N 51°05' E 003°44'0 0.0
2017-Sep-14 19:01N 51°05' E 003°44'0 0.0
2017-Sep-14 18:30N 51°05' E 003°44'0 0.0
2017-Sep-14 18:00N 51°05' E 003°44'0 0.0
2017-Sep-14 17:31N 51°05' E 003°44'0 0.0
2017-Sep-14 17:00N 51°05' E 003°44'0 0.0
2017-Sep-14 16:30N 51°05' E 003°44'0 0.0
2017-Sep-14 16:00N 51°05' E 003°44'0 0.0
2017-Sep-14 15:30N 51°05' E 003°44'0 0.0
2017-Sep-14 15:01N 51°05' E 003°44'0 0.0
2017-Sep-14 14:31N 51°05' E 003°44'0 0.0
2017-Sep-14 14:00N 51°05' E 003°44'0 0.0
2017-Sep-14 13:30N 51°05' E 003°44'0 0.0
2017-Sep-14 13:00N 51°05' E 003°44'0 0.0
2017-Sep-14 12:30N 51°05' E 003°44'0 0.0
2017-Sep-14 12:00N 51°05' E 003°44'0 0.0
2017-Sep-14 11:30N 51°05' E 003°44'0 0.0
2017-Sep-14 11:00N 51°05' E 003°44'0 0.0
2017-Sep-14 10:30N 51°05' E 003°44'0 0.0
2017-Sep-14 10:00N 51°05' E 003°44'0 0.0
2017-Sep-14 09:30N 51°05' E 003°44'0 0.0
2017-Sep-14 09:00N 51°05' E 003°44'0 0.0
2017-Sep-14 08:31N 51°05' E 003°44'0 0.0
2017-Sep-14 08:01N 51°05' E 003°44'0 0.0
2017-Sep-14 07:30N 51°05' E 003°44'0 0.0
2017-Sep-14 07:00N 51°05' E 003°44'0 0.0
2017-Sep-14 06:30N 51°05' E 003°44'0 0.0
2017-Sep-14 06:00N 51°05' E 003°44'0 0.0
2017-Sep-14 05:30N 51°05' E 003°44'0 0.0
2017-Sep-14 05:00N 51°05' E 003°44'0 0.0
2017-Sep-14 04:30N 51°05' E 003°44'0 0.0
2017-Sep-14 04:01N 51°05' E 003°44'0 0.0
2017-Sep-14 03:30N 51°05' E 003°44'0 0.0
2017-Sep-14 03:00N 51°05' E 003°44'0 0.0
2017-Sep-14 02:30N 51°05' E 003°44'0 0.0
2017-Sep-14 02:00N 51°05' E 003°44'0 0.0
2017-Sep-14 01:31N 51°05' E 003°44'0 0.0
2017-Sep-14 01:01N 51°05' E 003°44'0 0.0
2017-Sep-14 00:31N 51°05' E 003°44'0 0.0
2017-Sep-14 00:01N 51°05' E 003°44'0 0.0
2017-Sep-13 23:30N 51°05' E 003°44'0 0.0
2017-Sep-13 23:01N 51°05' E 003°44'0 0.0
2017-Sep-13 22:30N 51°05' E 003°44'0 0.0
2017-Sep-13 22:00N 51°05' E 003°44'0 0.0
2017-Sep-13 21:30N 51°05' E 003°44'0 0.0
2017-Sep-13 21:00N 51°05' E 003°44'0 0.0
2017-Sep-13 20:31N 51°05' E 003°44'0 0.0
2017-Sep-13 20:01N 51°05' E 003°44'0 0.0
2017-Sep-13 19:30N 51°05' E 003°44'0 0.0
2017-Sep-13 19:00N 51°05' E 003°44'0 0.0
2017-Sep-13 18:30N 51°05' E 003°44'0 0.0
2017-Sep-13 18:01N 51°05' E 003°44'0 0.2
2017-Sep-13 17:30N 51°06' E 003°44'2 4.7
2017-Sep-13 17:00N 51°08' E 003°46'4 7.5
2017-Sep-13 16:30N 51°11' E 003°48'4 7.9
2017-Sep-13 16:00N 51°15' E 003°49'4 8.0
2017-Sep-13 15:30N 51°19' E 003°50'0 0.4
2017-Sep-13 15:00N 51°19' E 003°50'0 0.0
2017-Sep-13 14:30N 51°19' E 003°50'0 0.0
2017-Sep-13 14:00N 51°19' E 003°50'0 0.0
2017-Sep-13 13:30N 51°19' E 003°50'0 0.0
2017-Sep-13 13:00N 51°19' E 003°50'0 0.0
2017-Sep-13 12:31N 51°19' E 003°50'0 0.0
2017-Sep-13 12:00N 51°19' E 003°50'0 0.0
2017-Sep-13 11:30N 51°19' E 003°50'0 0.0
2017-Sep-13 11:00N 51°19' E 003°50'0 0.0
2017-Sep-13 10:31N 51°19' E 003°50'0 0.0
2017-Sep-13 10:00N 51°19' E 003°50'0 0.0
2017-Sep-13 09:30N 51°19' E 003°50'0 0.0
2017-Sep-13 09:00N 51°19' E 003°50'0 0.0
2017-Sep-13 08:31N 51°19' E 003°50'0 0.0
2017-Sep-13 08:00N 51°19' E 003°50'0 0.0
2017-Sep-13 07:30N 51°19' E 003°50'0 0.0
2017-Sep-13 07:00N 51°19' E 003°50'0 0.0
2017-Sep-13 06:30N 51°19' E 003°50'0 0.0
2017-Sep-13 06:00N 51°19' E 003°50'0 0.0
2017-Sep-13 05:30N 51°19' E 003°50'0 0.0
2017-Sep-13 05:01N 51°19' E 003°50'0 0.0
2017-Sep-13 04:30N 51°19' E 003°50'0 0.0
2017-Sep-13 04:00N 51°19' E 003°50'0 0.0
2017-Sep-13 03:30N 51°19' E 003°50'0 0.0
2017-Sep-13 03:00N 51°19' E 003°50'0 0.0
2017-Sep-13 02:30N 51°19' E 003°50'0 0.0
2017-Sep-13 02:00N 51°19' E 003°50'0 0.0
2017-Sep-13 01:30N 51°19' E 003°50'0 0.0
2017-Sep-13 01:00N 51°19' E 003°50'0 0.0
2017-Sep-13 00:30N 51°19' E 003°50'0 0.0
2017-Sep-13 00:00N 51°19' E 003°50'0 0.0
2017-Sep-12 23:30N 51°19' E 003°50'0 0.0
2017-Sep-12 23:00N 51°19' E 003°50'0 0.0
2017-Sep-12 22:30N 51°19' E 003°50'0 0.0
2017-Sep-12 22:00N 51°19' E 003°50'0 0.0
2017-Sep-12 21:30N 51°19' E 003°50'0 0.0
2017-Sep-12 21:00N 51°19' E 003°50'0 0.0
2017-Sep-12 20:30N 51°19' E 003°50'0 0.0
2017-Sep-12 20:00N 51°19' E 003°50'0 0.0
2017-Sep-12 19:30N 51°19' E 003°50'0 0.0
2017-Sep-12 19:00N 51°19' E 003°50'0 0.0
2017-Sep-12 18:31N 51°19' E 003°50'0 0.0
2017-Sep-12 18:01N 51°19' E 003°50'0 0.0
2017-Sep-12 17:30N 51°19' E 003°50'0 0.0
2017-Sep-12 17:00N 51°19' E 003°50'0 0.0
2017-Sep-12 16:31N 51°19' E 003°50'0 0.0
2017-Sep-12 16:00N 51°19' E 003°50'0 0.0
2017-Sep-12 15:31N 51°19' E 003°50'0 0.0
2017-Sep-12 15:00N 51°19' E 003°50'0 0.0
2017-Sep-12 14:31N 51°19' E 003°50'0 0.0
2017-Sep-12 14:00N 51°19' E 003°50'0 0.0
2017-Sep-12 13:30N 51°19' E 003°50'0 0.2
2017-Sep-12 13:00N 51°19' E 003°50'1 2.0
2017-Sep-12 12:30N 51°20' E 003°49'0 0.0
2017-Sep-12 12:00N 51°20' E 003°49'1 1.7
2017-Sep-12 11:30N 51°21' E 003°50'5 9.1
2017-Sep-12 11:00N 51°23' E 003°57'2956.0
2017-Sep-12 10:29N 51°42' E 004°32'0 0.0
2017-Sep-12 10:00N 51°42' E 004°32'0 0.0
2017-Sep-12 09:30N 51°42' E 004°32'0 0.0
2017-Sep-12 09:00N 51°42' E 004°32'0 0.0
2017-Sep-12 08:30N 51°42' E 004°32'0 0.0
2017-Sep-12 08:00N 51°42' E 004°32'0 0.0
2017-Sep-12 07:30N 51°42' E 004°32'0 0.0
2017-Sep-12 07:00N 51°42' E 004°32'0 0.0
2017-Sep-12 06:30N 51°42' E 004°32'0 0.0
2017-Sep-12 06:00N 51°42' E 004°32'0 0.0
2017-Sep-12 05:30N 51°42' E 004°32'1 1.5
2017-Sep-12 05:00N 51°42' E 004°33'3 6.5
2017-Sep-12 04:30N 51°43' E 004°38'4 7.7
2017-Sep-12 04:00N 51°45' E 004°44'4 7.6
2017-Sep-12 03:30N 51°48' E 004°47'4 7.3
2017-Sep-12 03:00N 51°49' E 004°53'4 8.2
2017-Sep-12 02:30N 51°49' E 004°60'19 7.8
2017-Sep-12 00:04N 51°53' E 005°30'2 9.2
2017-Sep-11 23:48N 51°54' E 005°34'3 9.2
2017-Sep-11 23:29N 51°54' E 005°38'4 9.0
2017-Sep-11 23:00N 51°53' E 005°45'4 8.9
2017-Sep-11 22:30N 51°51' E 005°52'3 6.9
2017-Sep-11 22:00N 51°52' E 005°57'3 6.6
2017-Sep-11 21:30N 51°52' E 006°02'4 8.9
2017-Sep-11 21:00N 51°51' E 006°09'5 9.1
2017-Sep-11 20:30N 51°49' E 006°16'5 9.5
2017-Sep-11 20:00N 51°45' E 006°21'3 6.3
2017-Sep-11 19:30N 51°43' E 006°25'4 8.4
2017-Sep-11 19:00N 51°40' E 006°29'4 8.9
2017-Sep-11 18:30N 51°39' E 006°36'4 8.7
2017-Sep-11 18:00N 51°35' E 006°36'3 7.0
2017-Sep-11 17:30N 51°34' E 006°41'4 7.7
2017-Sep-11 17:00N 51°30' E 006°44'2 5.0
2017-Sep-11 16:30N 51°28' E 006°43'1 1.1
2017-Sep-11 16:00N 51°27' E 006°44'3 6.2
2017-Sep-11 15:30N 51°24' E 006°45'8 6.3
2017-Sep-11 14:16N 51°17' E 006°42'2 8.1
2017-Sep-11 14:00N 51°15' E 006°45'2 4.4
2017-Sep-11 13:30N 51°13' E 006°43'3 6.6
2017-Sep-11 13:00N 51°11' E 006°47'2 4.3
2017-Sep-11 12:30N 51°10' E 006°50'13 7.2
2017-Sep-11 10:42N 50°58' E 006°60'3 8.0
2017-Sep-11 10:21N 50°56' E 006°58'3 8.3
2017-Sep-11 10:00N 50°54' E 007°01'9 6.1
2017-Sep-11 08:30N 50°45' E 007°06'4 8.0
2017-Sep-11 08:00N 50°42' E 007°10'  

Dump ship's entire track history